SECU/CUE METAR and TAF weather

Enter ICAO airport designator
Station Type Date Time Source
SECU METAR 2021/04/17 02:00 UTC NOAA

SECU 170200Z AUTO 08003KT 050V110 ////NDV NCD 13/13 Q1026


Station Type Date Time Source
SECU Decoded METAR 2021/04/17 02:00 UTC NOAA

Cuenca / Mariscal Lamar, Ecuador (SECU) 02-53S 078-59W 2531M
Apr 16, 2021 - 10:00 PM EDT / 2021.04.17 0200 UTC
Wind: from the E (080 degrees) at 3 MPH (3 KT) (direction variable):0
Temperature: 55 F (13 C)
Dew Point: 55 F (13 C)
Relative Humidity: 100%
Pressure (altimeter): 30.30 in. Hg (1026 hPa)
ob: SECU 170200Z AUTO 08003KT 050V110 ////NDV NCD 13/13 Q1026
cycle: 2

Station Type Date Time Source
SECU TAF 2019/10/28 06:45 UTC NOAA

TAF SECU 280435Z 2806/2906 VRB03KT 9999 FEW010 BKN033
BECMG 2814/2815 05005KT BKN040 BKN100 TX20/2819Z TN12/2811Z

Example: see airport list